sensor_id;sensor_type;location;lat;lon;timestamp;temperature;humidity
15937;DHT22;9163;48.818;8.976;2022-09-09T00:01:53;14.40;99.90
15937;DHT22;9163;48.818;8.976;2022-09-09T00:04:26;14.40;99.90
15937;DHT22;9163;48.818;8.976;2022-09-09T00:07:01;14.40;99.90
15937;DHT22;9163;48.818;8.976;2022-09-09T00:09:54;14.40;99.90
15937;DHT22;9163;48.818;8.976;2022-09-09T00:12:34;14.30;99.90
15937;DHT22;9163;48.818;8.976;2022-09-09T00:15:10;14.40;99.90
15937;DHT22;9163;48.818;8.976;2022-09-09T00:17:46;14.40;99.90
15937;DHT22;9163;48.818;8.976;2022-09-09T00:20:19;14.40;99.90
15937;DHT22;9163;48.818;8.976;2022-09-09T00:22:55;14.40;99.90
15937;DHT22;9163;48.818;8.976;2022-09-09T00:25:29;14.40;99.90
15937;DHT22;9163;48.818;8.976;2022-09-09T00:28:02;14.40;99.90
15937;DHT22;9163;48.818;8.976;2022-09-09T00:30:32;14.30;99.90
15937;DHT22;9163;48.818;8.976;2022-09-09T00:33:08;14.40;99.90
15937;DHT22;9163;48.818;8.976;2022-09-09T00:35:40;14.40;99.90
15937;DHT22;9163;48.818;8.976;2022-09-09T00:38:12;14.40;99.90
15937;DHT22;9163;48.818;8.976;2022-09-09T00:40:47;14.50;99.90
15937;DHT22;9163;48.818;8.976;2022-09-09T00:43:26;14.50;99.90
15937;DHT22;9163;48.818;8.976;2022-09-09T00:48:57;14.50;99.90
15937;DHT22;9163;48.818;8.976;2022-09-09T00:51:34;14.50;99.90
15937;DHT22;9163;48.818;8.976;2022-09-09T00:54:24;14.50;99.90
15937;DHT22;9163;48.818;8.976;2022-09-09T00:57:05;14.60;99.90
15937;DHT22;9163;48.818;8.976;2022-09-09T00:59:45;14.70;99.90
15937;DHT22;9163;48.818;8.976;2022-09-09T01:02:19;14.70;99.90
15937;DHT22;9163;48.818;8.976;2022-09-09T01:04:49;14.70;99.90
15937;DHT22;9163;48.818;8.976;2022-09-09T01:07:17;14.70;99.90
15937;DHT22;9163;48.818;8.976;2022-09-09T01:09:54;14.70;99.90
15937;DHT22;9163;48.818;8.976;2022-09-09T01:12:34;14.70;99.90
15937;DHT22;9163;48.818;8.976;2022-09-09T01:15:11;14.80;99.90
15937;DHT22;9163;48.818;8.976;2022-09-09T01:17:49;14.80;99.90
15937;DHT22;9163;48.818;8.976;2022-09-09T01:20:20;14.70;99.90
15937;DHT22;9163;48.818;8.976;2022-09-09T01:23:04;14.70;99.90
15937;DHT22;9163;48.818;8.976;2022-09-09T01:28:46;14.70;99.90
15937;DHT22;9163;48.818;8.976;2022-09-09T01:31:18;14.60;99.90
15937;DHT22;9163;48.818;8.976;2022-09-09T01:33:47;14.60;99.90
15937;DHT22;9163;48.818;8.976;2022-09-09T01:36:21;14.70;99.90
15937;DHT22;9163;48.818;8.976;2022-09-09T01:38:48;14.70;99.90
15937;DHT22;9163;48.818;8.976;2022-09-09T01:41:16;14.60;99.90
15937;DHT22;9163;48.818;8.976;2022-09-09T01:43:44;14.50;99.90
15937;DHT22;9163;48.818;8.976;2022-09-09T01:46:12;14.50;99.90
15937;DHT22;9163;48.818;8.976;2022-09-09T01:48:41;14.50;99.90
15937;DHT22;9163;48.818;8.976;2022-09-09T01:51:08;14.50;99.90
15937;DHT22;9163;48.818;8.976;2022-09-09T01:53:37;14.50;99.90
15937;DHT22;9163;48.818;8.976;2022-09-09T01:56:25;14.40;99.90
15937;DHT22;9163;48.818;8.976;2022-09-09T01:59:16;14.40;99.90
15937;DHT22;9163;48.818;8.976;2022-09-09T02:01:55;14.40;99.90
15937;DHT22;9163;48.818;8.976;2022-09-09T02:04:33;14.50;99.90
15937;DHT22;9163;48.818;8.976;2022-09-09T02:09:58;14.50;99.90
15937;DHT22;9163;48.818;8.976;2022-09-09T02:12:28;14.50;99.90
15937;DHT22;9163;48.818;8.976;2022-09-09T02:15:03;14.50;99.90
15937;DHT22;9163;48.818;8.976;2022-09-09T02:17:35;14.50;99.90
15937;DHT22;9163;48.818;8.976;2022-09-09T02:20:08;14.50;99.90
15937;DHT22;9163;48.818;8.976;2022-09-09T02:22:39;14.50;99.90
15937;DHT22;9163;48.818;8.976;2022-09-09T02:25:08;14.40;99.90
15937;DHT22;9163;48.818;8.976;2022-09-09T02:27:37;14.40;99.90
15937;DHT22;9163;48.818;8.976;2022-09-09T02:30:09;14.40;99.90
15937;DHT22;9163;48.818;8.976;2022-09-09T02:32:38;14.30;99.90
15937;DHT22;9163;48.818;8.976;2022-09-09T02:35:09;14.30;99.90
15937;DHT22;9163;48.818;8.976;2022-09-09T02:37:39;14.20;99.90
15937;DHT22;9163;48.818;8.976;2022-09-09T02:40:10;14.10;99.90
15937;DHT22;9163;48.818;8.976;2022-09-09T02:42:39;14.20;99.90
15937;DHT22;9163;48.818;8.976;2022-09-09T02:45:10;14.10;99.90
15937;DHT22;9163;48.818;8.976;2022-09-09T02:47:41;14.10;99.90
15937;DHT22;9163;48.818;8.976;2022-09-09T02:50:13;14.10;99.90
15937;DHT22;9163;48.818;8.976;2022-09-09T02:52:50;14.10;99.90
15937;DHT22;9163;48.818;8.976;2022-09-09T02:55:24;14.10;99.90
15937;DHT22;9163;48.818;8.976;2022-09-09T02:57:55;14.10;99.90
15937;DHT22;9163;48.818;8.976;2022-09-09T03:00:26;14.00;99.90
15937;DHT22;9163;48.818;8.976;2022-09-09T03:02:54;14.00;99.90
15937;DHT22;9163;48.818;8.976;2022-09-09T03:05:21;13.90;99.90
15937;DHT22;9163;48.818;8.976;2022-09-09T03:07:49;13.90;99.90
15937;DHT22;9163;48.818;8.976;2022-09-09T03:10:16;13.80;99.90
15937;DHT22;9163;48.818;8.976;2022-09-09T03:12:44;13.80;99.90
15937;DHT22;9163;48.818;8.976;2022-09-09T03:15:11;13.80;99.90
15937;DHT22;9163;48.818;8.976;2022-09-09T03:17:41;13.80;99.90
15937;DHT22;9163;48.818;8.976;2022-09-09T03:20:09;13.70;99.90
15937;DHT22;9163;48.818;8.976;2022-09-09T03:22:36;13.70;99.90
15937;DHT22;9163;48.818;8.976;2022-09-09T03:25:04;13.60;99.90
15937;DHT22;9163;48.818;8.976;2022-09-09T03:27:31;13.60;99.90
15937;DHT22;9163;48.818;8.976;2022-09-09T03:29:58;13.60;99.90
15937;DHT22;9163;48.818;8.976;2022-09-09T03:32:29;13.50;99.90
15937;DHT22;9163;48.818;8.976;2022-09-09T03:34:58;13.60;99.90
15937;DHT22;9163;48.818;8.976;2022-09-09T03:37:25;13.50;99.90
15937;DHT22;9163;48.818;8.976;2022-09-09T03:39:53;13.50;99.90
15937;DHT22;9163;48.818;8.976;2022-09-09T03:42:21;13.50;99.90
15937;DHT22;9163;48.818;8.976;2022-09-09T03:44:48;13.50;99.90
15937;DHT22;9163;48.818;8.976;2022-09-09T03:47:17;13.50;99.90
15937;DHT22;9163;48.818;8.976;2022-09-09T03:49:45;13.50;99.90
15937;DHT22;9163;48.818;8.976;2022-09-09T03:52:14;13.50;99.90
15937;DHT22;9163;48.818;8.976;2022-09-09T03:54:42;13.50;99.90
15937;DHT22;9163;48.818;8.976;2022-09-09T03:57:09;13.50;99.90
15937;DHT22;9163;48.818;8.976;2022-09-09T03:59:37;13.50;99.90
15937;DHT22;9163;48.818;8.976;2022-09-09T04:02:04;13.50;99.90
15937;DHT22;9163;48.818;8.976;2022-09-09T04:15:37;13.40;99.90
15937;DHT22;9163;48.818;8.976;2022-09-09T04:18:04;13.50;99.90
15937;DHT22;9163;48.818;8.976;2022-09-09T04:20:32;13.50;99.90
15937;DHT22;9163;48.818;8.976;2022-09-09T04:22:59;13.60;99.90
15937;DHT22;9163;48.818;8.976;2022-09-09T04:29:08;13.60;99.90
15937;DHT22;9163;48.818;8.976;2022-09-09T04:31:37;13.70;99.90
15937;DHT22;9163;48.818;8.976;2022-09-09T04:34:08;13.70;99.90
15937;DHT22;9163;48.818;8.976;2022-09-09T04:36:35;13.60;99.90
15937;DHT22;9163;48.818;8.976;2022-09-09T04:39:03;13.50;99.90
15937;DHT22;9163;48.818;8.976;2022-09-09T04:41:30;13.40;99.90
15937;DHT22;9163;48.818;8.976;2022-09-09T04:43:58;13.40;99.90
15937;DHT22;9163;48.818;8.976;2022-09-09T04:46:27;13.30;99.90
15937;DHT22;9163;48.818;8.976;2022-09-09T04:48:55;13.30;99.90
15937;DHT22;9163;48.818;8.976;2022-09-09T04:51:22;13.30;99.90
15937;DHT22;9163;48.818;8.976;2022-09-09T04:53:50;13.30;99.90
15937;DHT22;9163;48.818;8.976;2022-09-09T04:56:19;13.30;99.90
15937;DHT22;9163;48.818;8.976;2022-09-09T04:58:47;13.30;99.90
15937;DHT22;9163;48.818;8.976;2022-09-09T05:01:16;13.30;99.90
15937;DHT22;9163;48.818;8.976;2022-09-09T05:03:44;13.40;99.90
15937;DHT22;9163;48.818;8.976;2022-09-09T05:06:14;13.50;99.90
15937;DHT22;9163;48.818;8.976;2022-09-09T05:08:43;13.50;99.90
15937;DHT22;9163;48.818;8.976;2022-09-09T05:11:15;13.50;99.90
15937;DHT22;9163;48.818;8.976;2022-09-09T05:13:43;13.50;99.90
15937;DHT22;9163;48.818;8.976;2022-09-09T05:16:10;13.50;99.90
15937;DHT22;9163;48.818;8.976;2022-09-09T05:18:39;13.50;99.90
15937;DHT22;9163;48.818;8.976;2022-09-09T05:21:06;13.50;99.90
15937;DHT22;9163;48.818;8.976;2022-09-09T05:23:36;13.60;99.90
15937;DHT22;9163;48.818;8.976;2022-09-09T05:26:04;13.60;99.90
15937;DHT22;9163;48.818;8.976;2022-09-09T05:28:34;13.60;99.90
15937;DHT22;9163;48.818;8.976;2022-09-09T05:31:03;13.60;99.90
15937;DHT22;9163;48.818;8.976;2022-09-09T05:33:31;13.60;99.90
15937;DHT22;9163;48.818;8.976;2022-09-09T05:36:00;13.70;99.90
15937;DHT22;9163;48.818;8.976;2022-09-09T05:38:29;13.70;99.90
15937;DHT22;9163;48.818;8.976;2022-09-09T05:40:58;13.70;99.90
15937;DHT22;9163;48.818;8.976;2022-09-09T05:43:26;13.80;99.90
15937;DHT22;9163;48.818;8.976;2022-09-09T05:46:01;13.80;99.90
15937;DHT22;9163;48.818;8.976;2022-09-09T05:48:29;13.90;99.90
15937;DHT22;9163;48.818;8.976;2022-09-09T05:50:57;14.00;99.90
15937;DHT22;9163;48.818;8.976;2022-09-09T05:53:24;14.00;99.90
15937;DHT22;9163;48.818;8.976;2022-09-09T05:55:59;14.10;99.90
15937;DHT22;9163;48.818;8.976;2022-09-09T05:58:27;14.20;99.90
15937;DHT22;9163;48.818;8.976;2022-09-09T06:01:01;14.20;99.90
15937;DHT22;9163;48.818;8.976;2022-09-09T06:03:28;14.20;99.90
15937;DHT22;9163;48.818;8.976;2022-09-09T06:06:00;14.30;99.90
15937;DHT22;9163;48.818;8.976;2022-09-09T06:08:28;14.30;99.90
15937;DHT22;9163;48.818;8.976;2022-09-09T06:11:02;14.30;99.90
15937;DHT22;9163;48.818;8.976;2022-09-09T06:13:31;14.30;99.90
15937;DHT22;9163;48.818;8.976;2022-09-09T06:15:58;14.40;99.90
15937;DHT22;9163;48.818;8.976;2022-09-09T06:18:26;14.50;99.90
15937;DHT22;9163;48.818;8.976;2022-09-09T06:20:55;14.50;99.90
15937;DHT22;9163;48.818;8.976;2022-09-09T06:23:22;14.60;99.90
15937;DHT22;9163;48.818;8.976;2022-09-09T06:25:49;14.60;99.90
15937;DHT22;9163;48.818;8.976;2022-09-09T06:28:18;14.60;99.90
15937;DHT22;9163;48.818;8.976;2022-09-09T06:30:46;14.60;99.90
15937;DHT22;9163;48.818;8.976;2022-09-09T06:33:13;14.60;99.90
15937;DHT22;9163;48.818;8.976;2022-09-09T06:35:40;14.70;99.90
15937;DHT22;9163;48.818;8.976;2022-09-09T06:38:08;14.80;99.90
15937;DHT22;9163;48.818;8.976;2022-09-09T06:40:35;14.80;99.90
15937;DHT22;9163;48.818;8.976;2022-09-09T06:43:05;14.90;99.90
15937;DHT22;9163;48.818;8.976;2022-09-09T06:45:34;14.90;99.90
15937;DHT22;9163;48.818;8.976;2022-09-09T06:48:02;15.00;99.90
15937;DHT22;9163;48.818;8.976;2022-09-09T06:50:30;15.10;99.90
15937;DHT22;9163;48.818;8.976;2022-09-09T06:52:57;15.10;99.90
15937;DHT22;9163;48.818;8.976;2022-09-09T06:55:24;15.20;99.90
15937;DHT22;9163;48.818;8.976;2022-09-09T06:57:51;15.30;99.90
15937;DHT22;9163;48.818;8.976;2022-09-09T07:00:19;15.40;99.90
15937;DHT22;9163;48.818;8.976;2022-09-09T07:13:39;15.70;99.90
15937;DHT22;9163;48.818;8.976;2022-09-09T07:16:09;16.10;99.90
15937;DHT22;9163;48.818;8.976;2022-09-09T07:18:36;16.40;99.90
15937;DHT22;9163;48.818;8.976;2022-09-09T07:21:04;16.50;99.90
15937;DHT22;9163;48.818;8.976;2022-09-09T07:23:32;16.60;99.90
15937;DHT22;9163;48.818;8.976;2022-09-09T07:26:01;16.50;99.90
15937;DHT22;9163;48.818;8.976;2022-09-09T07:28:29;16.80;99.90
15937;DHT22;9163;48.818;8.976;2022-09-09T07:30:59;17.00;99.90
15937;DHT22;9163;48.818;8.976;2022-09-09T07:33:28;17.20;99.90
15937;DHT22;9163;48.818;8.976;2022-09-09T07:36:02;17.20;99.90
15937;DHT22;9163;48.818;8.976;2022-09-09T07:38:30;17.30;99.90
15937;DHT22;9163;48.818;8.976;2022-09-09T07:41:03;17.40;99.90
15937;DHT22;9163;48.818;8.976;2022-09-09T07:43:31;17.50;99.90
15937;DHT22;9163;48.818;8.976;2022-09-09T07:46:02;17.90;99.90
15937;DHT22;9163;48.818;8.976;2022-09-09T07:48:29;18.30;99.90
15937;DHT22;9163;48.818;8.976;2022-09-09T07:51:06;18.30;99.90
15937;DHT22;9163;48.818;8.976;2022-09-09T07:53:34;18.20;99.90
15937;DHT22;9163;48.818;8.976;2022-09-09T07:56:03;18.50;99.90
15937;DHT22;9163;48.818;8.976;2022-09-09T07:58:31;18.60;99.90
15937;DHT22;9163;48.818;8.976;2022-09-09T08:01:12;18.80;99.90
15937;DHT22;9163;48.818;8.976;2022-09-09T08:03:40;18.70;99.90
15937;DHT22;9163;48.818;8.976;2022-09-09T08:06:08;18.60;99.90
15937;DHT22;9163;48.818;8.976;2022-09-09T08:08:36;18.80;99.90
15937;DHT22;9163;48.818;8.976;2022-09-09T08:11:06;19.00;99.90
15937;DHT22;9163;48.818;8.976;2022-09-09T08:13:35;19.10;99.90
15937;DHT22;9163;48.818;8.976;2022-09-09T08:16:07;18.80;99.90
15937;DHT22;9163;48.818;8.976;2022-09-09T08:18:36;19.00;99.90
15937;DHT22;9163;48.818;8.976;2022-09-09T08:21:08;19.10;99.90
15937;DHT22;9163;48.818;8.976;2022-09-09T08:23:38;19.20;99.90
15937;DHT22;9163;48.818;8.976;2022-09-09T08:26:10;19.30;99.90
15937;DHT22;9163;48.818;8.976;2022-09-09T08:28:38;19.20;99.90
15937;DHT22;9163;48.818;8.976;2022-09-09T08:31:11;19.40;99.90
15937;DHT22;9163;48.818;8.976;2022-09-09T08:33:41;19.70;99.90
15937;DHT22;9163;48.818;8.976;2022-09-09T08:36:12;20.20;99.90
15937;DHT22;9163;48.818;8.976;2022-09-09T08:38:41;20.20;99.90
15937;DHT22;9163;48.818;8.976;2022-09-09T08:44:07;19.90;99.90
15937;DHT22;9163;48.818;8.976;2022-09-09T08:46:44;20.10;99.90
15937;DHT22;9163;48.818;8.976;2022-09-09T08:49:50;20.00;99.90
15937;DHT22;9163;48.818;8.976;2022-09-09T08:52:27;20.00;99.90
15937;DHT22;9163;48.818;8.976;2022-09-09T08:54:58;20.40;99.90
15937;DHT22;9163;48.818;8.976;2022-09-09T08:57:31;20.00;99.90
15937;DHT22;9163;48.818;8.976;2022-09-09T08:59:59;19.70;99.90
15937;DHT22;9163;48.818;8.976;2022-09-09T09:02:32;19.50;99.90
15937;DHT22;9163;48.818;8.976;2022-09-09T09:05:14;19.40;99.90
15937;DHT22;9163;48.818;8.976;2022-09-09T09:07:52;19.20;99.90
15937;DHT22;9163;48.818;8.976;2022-09-09T09:10:33;19.00;99.90
15937;DHT22;9163;48.818;8.976;2022-09-09T09:13:03;19.30;99.90
15937;DHT22;9163;48.818;8.976;2022-09-09T09:15:36;19.60;99.90
15937;DHT22;9163;48.818;8.976;2022-09-09T09:18:04;19.90;99.90
15937;DHT22;9163;48.818;8.976;2022-09-09T09:20:50;20.50;99.90
15937;DHT22;9163;48.818;8.976;2022-09-09T09:23:23;20.40;99.90
15937;DHT22;9163;48.818;8.976;2022-09-09T09:25:54;20.50;99.90
15937;DHT22;9163;48.818;8.976;2022-09-09T09:28:24;20.60;99.90
15937;DHT22;9163;48.818;8.976;2022-09-09T09:30:55;20.70;99.90
15937;DHT22;9163;48.818;8.976;2022-09-09T09:33:27;20.30;99.90
15937;DHT22;9163;48.818;8.976;2022-09-09T09:35:56;19.90;99.90
15937;DHT22;9163;48.818;8.976;2022-09-09T09:38:29;20.10;99.90
15937;DHT22;9163;48.818;8.976;2022-09-09T09:40:58;20.40;99.90
15937;DHT22;9163;48.818;8.976;2022-09-09T09:43:28;20.40;99.90
15937;DHT22;9163;48.818;8.976;2022-09-09T09:45:55;20.50;99.90
15937;DHT22;9163;48.818;8.976;2022-09-09T09:48:25;20.80;99.90
15937;DHT22;9163;48.818;8.976;2022-09-09T09:50:56;20.90;99.90
15937;DHT22;9163;48.818;8.976;2022-09-09T09:53:25;21.20;99.90
15937;DHT22;9163;48.818;8.976;2022-09-09T09:55:58;21.20;99.90
15937;DHT22;9163;48.818;8.976;2022-09-09T09:58:29;21.00;99.90
15937;DHT22;9163;48.818;8.976;2022-09-09T10:00:58;21.10;99.90
15937;DHT22;9163;48.818;8.976;2022-09-09T10:03:27;20.90;99.90
15937;DHT22;9163;48.818;8.976;2022-09-09T10:05:56;21.00;99.90
15937;DHT22;9163;48.818;8.976;2022-09-09T10:08:24;20.90;99.90
15937;DHT22;9163;48.818;8.976;2022-09-09T10:11:06;21.10;99.90
15937;DHT22;9163;48.818;8.976;2022-09-09T10:13:46;21.70;99.90
15937;DHT22;9163;48.818;8.976;2022-09-09T10:16:30;22.10;99.90
15937;DHT22;9163;48.818;8.976;2022-09-09T10:19:04;22.10;99.90
15937;DHT22;9163;48.818;8.976;2022-09-09T10:21:55;22.30;99.90
15937;DHT22;9163;48.818;8.976;2022-09-09T10:24:40;22.30;99.90
15937;DHT22;9163;48.818;8.976;2022-09-09T10:27:18;21.30;99.90
15937;DHT22;9163;48.818;8.976;2022-09-09T10:30:01;20.80;99.90
15937;DHT22;9163;48.818;8.976;2022-09-09T10:32:41;20.50;99.90
15937;DHT22;9163;48.818;8.976;2022-09-09T10:35:29;20.20;99.90
15937;DHT22;9163;48.818;8.976;2022-09-09T10:38:21;20.40;99.90
15937;DHT22;9163;48.818;8.976;2022-09-09T10:41:18;20.20;99.90
15937;DHT22;9163;48.818;8.976;2022-09-09T10:44:06;20.10;99.90
15937;DHT22;9163;48.818;8.976;2022-09-09T10:46:52;19.80;99.90
15937;DHT22;9163;48.818;8.976;2022-09-09T10:49:46;19.70;99.90
15937;DHT22;9163;48.818;8.976;2022-09-09T10:52:42;19.70;99.90
15937;DHT22;9163;48.818;8.976;2022-09-09T10:55:18;19.50;99.90
15937;DHT22;9163;48.818;8.976;2022-09-09T10:57:46;19.30;99.90
15937;DHT22;9163;48.818;8.976;2022-09-09T11:00:18;19.30;99.90
15937;DHT22;9163;48.818;8.976;2022-09-09T11:02:48;19.10;99.90
15937;DHT22;9163;48.818;8.976;2022-09-09T11:05:20;19.10;99.90
15937;DHT22;9163;48.818;8.976;2022-09-09T11:07:50;18.50;99.90
15937;DHT22;9163;48.818;8.976;2022-09-09T11:10:25;18.20;99.90
15937;DHT22;9163;48.818;8.976;2022-09-09T11:13:01;18.00;99.90
15937;DHT22;9163;48.818;8.976;2022-09-09T11:15:36;17.90;99.90
15937;DHT22;9163;48.818;8.976;2022-09-09T11:18:10;17.80;99.90
15937;DHT22;9163;48.818;8.976;2022-09-09T11:20:39;17.70;99.90
15937;DHT22;9163;48.818;8.976;2022-09-09T11:23:13;17.70;99.90
15937;DHT22;9163;48.818;8.976;2022-09-09T11:25:49;17.60;99.90
15937;DHT22;9163;48.818;8.976;2022-09-09T11:28:35;17.60;99.90
15937;DHT22;9163;48.818;8.976;2022-09-09T11:31:19;17.60;99.90
15937;DHT22;9163;48.818;8.976;2022-09-09T11:34:01;17.40;99.90
15937;DHT22;9163;48.818;8.976;2022-09-09T11:37:00;17.50;99.90
15937;DHT22;9163;48.818;8.976;2022-09-09T11:42:23;17.50;99.90
15937;DHT22;9163;48.818;8.976;2022-09-09T11:44:57;17.30;99.90
15937;DHT22;9163;48.818;8.976;2022-09-09T11:47:39;17.40;99.90
15937;DHT22;9163;48.818;8.976;2022-09-09T11:50:26;17.80;99.90
15937;DHT22;9163;48.818;8.976;2022-09-09T11:56:24;18.50;99.90
15937;DHT22;9163;48.818;8.976;2022-09-09T11:59:03;19.20;99.90
15937;DHT22;9163;48.818;8.976;2022-09-09T12:01:36;19.50;99.90
15937;DHT22;9163;48.818;8.976;2022-09-09T12:04:29;20.10;99.90
15937;DHT22;9163;48.818;8.976;2022-09-09T12:07:01;20.90;99.90
15937;DHT22;9163;48.818;8.976;2022-09-09T12:09:33;21.40;99.90
15937;DHT22;9163;48.818;8.976;2022-09-09T12:12:20;22.00;99.90
15937;DHT22;9163;48.818;8.976;2022-09-09T12:14:58;22.40;99.90
15937;DHT22;9163;48.818;8.976;2022-09-09T12:17:27;22.60;99.90
15937;DHT22;9163;48.818;8.976;2022-09-09T12:20:08;23.00;99.90
15937;DHT22;9163;48.818;8.976;2022-09-09T12:22:49;22.70;99.90
15937;DHT22;9163;48.818;8.976;2022-09-09T12:25:23;22.50;99.90
15937;DHT22;9163;48.818;8.976;2022-09-09T12:28:02;21.60;99.90
15937;DHT22;9163;48.818;8.976;2022-09-09T12:30:39;21.10;99.90
15937;DHT22;9163;48.818;8.976;2022-09-09T12:33:11;21.00;99.90
15937;DHT22;9163;48.818;8.976;2022-09-09T12:35:41;21.10;99.90
15937;DHT22;9163;48.818;8.976;2022-09-09T12:38:14;21.00;99.90
15937;DHT22;9163;48.818;8.976;2022-09-09T12:40:54;21.00;99.90
15937;DHT22;9163;48.818;8.976;2022-09-09T12:43:25;21.10;99.90
15937;DHT22;9163;48.818;8.976;2022-09-09T12:46:00;21.40;99.90
15937;DHT22;9163;48.818;8.976;2022-09-09T12:48:35;21.80;99.90
15937;DHT22;9163;48.818;8.976;2022-09-09T12:51:05;21.90;99.90
15937;DHT22;9163;48.818;8.976;2022-09-09T12:53:36;22.30;99.90
15937;DHT22;9163;48.818;8.976;2022-09-09T12:56:07;22.30;99.90
15937;DHT22;9163;48.818;8.976;2022-09-09T12:58:36;22.20;99.90
15937;DHT22;9163;48.818;8.976;2022-09-09T13:01:06;22.80;99.90
15937;DHT22;9163;48.818;8.976;2022-09-09T13:03:47;22.70;99.90
15937;DHT22;9163;48.818;8.976;2022-09-09T13:06:31;22.00;99.90
15937;DHT22;9163;48.818;8.976;2022-09-09T13:09:04;22.50;99.90
15937;DHT22;9163;48.818;8.976;2022-09-09T13:11:37;22.00;99.90
15937;DHT22;9163;48.818;8.976;2022-09-09T13:14:14;22.30;99.90
15937;DHT22;9163;48.818;8.976;2022-09-09T13:17:06;22.20;99.90
15937;DHT22;9163;48.818;8.976;2022-09-09T13:19:36;22.30;99.90
15937;DHT22;9163;48.818;8.976;2022-09-09T13:22:12;22.20;99.90
15937;DHT22;9163;48.818;8.976;2022-09-09T13:24:40;22.10;99.90
15937;DHT22;9163;48.818;8.976;2022-09-09T13:27:24;22.10;99.90
15937;DHT22;9163;48.818;8.976;2022-09-09T13:29:55;22.00;99.90
15937;DHT22;9163;48.818;8.976;2022-09-09T13:32:25;22.20;99.90
15937;DHT22;9163;48.818;8.976;2022-09-09T13:34:56;22.30;99.90
15937;DHT22;9163;48.818;8.976;2022-09-09T13:37:30;21.90;99.90
15937;DHT22;9163;48.818;8.976;2022-09-09T13:40:01;21.90;99.90
15937;DHT22;9163;48.818;8.976;2022-09-09T13:42:31;22.10;99.90
15937;DHT22;9163;48.818;8.976;2022-09-09T13:45:01;21.30;99.90
15937;DHT22;9163;48.818;8.976;2022-09-09T13:47:33;21.40;99.90
15937;DHT22;9163;48.818;8.976;2022-09-09T13:50:17;21.50;99.90
15937;DHT22;9163;48.818;8.976;2022-09-09T13:52:45;21.60;99.90
15937;DHT22;9163;48.818;8.976;2022-09-09T13:55:13;21.30;99.90
15937;DHT22;9163;48.818;8.976;2022-09-09T13:57:50;21.30;99.90
15937;DHT22;9163;48.818;8.976;2022-09-09T14:00:18;21.50;99.90
15937;DHT22;9163;48.818;8.976;2022-09-09T14:02:47;21.90;99.90
15937;DHT22;9163;48.818;8.976;2022-09-09T14:05:15;21.80;99.90
15937;DHT22;9163;48.818;8.976;2022-09-09T14:07:43;22.10;99.90
15937;DHT22;9163;48.818;8.976;2022-09-09T14:10:11;22.40;99.90
15937;DHT22;9163;48.818;8.976;2022-09-09T14:12:38;22.70;99.90
15937;DHT22;9163;48.818;8.976;2022-09-09T14:15:08;22.60;99.90
15937;DHT22;9163;48.818;8.976;2022-09-09T14:17:36;22.60;99.90
15937;DHT22;9163;48.818;8.976;2022-09-09T14:20:07;22.60;99.90
15937;DHT22;9163;48.818;8.976;2022-09-09T14:22:35;22.80;99.90
15937;DHT22;9163;48.818;8.976;2022-09-09T14:25:05;22.80;99.90
15937;DHT22;9163;48.818;8.976;2022-09-09T14:27:33;23.00;99.90
15937;DHT22;9163;48.818;8.976;2022-09-09T14:30:00;22.80;99.90
15937;DHT22;9163;48.818;8.976;2022-09-09T14:32:28;22.60;99.90
15937;DHT22;9163;48.818;8.976;2022-09-09T14:34:55;22.40;99.90
15937;DHT22;9163;48.818;8.976;2022-09-09T14:37:24;22.20;99.90
15937;DHT22;9163;48.818;8.976;2022-09-09T14:39:52;21.80;99.90
15937;DHT22;9163;48.818;8.976;2022-09-09T14:42:19;21.60;99.90
15937;DHT22;9163;48.818;8.976;2022-09-09T14:44:48;21.10;99.90
15937;DHT22;9163;48.818;8.976;2022-09-09T14:47:15;21.10;99.90
15937;DHT22;9163;48.818;8.976;2022-09-09T14:49:42;21.20;99.90
15937;DHT22;9163;48.818;8.976;2022-09-09T14:52:10;21.30;99.90
15937;DHT22;9163;48.818;8.976;2022-09-09T14:54:39;21.10;99.90
15937;DHT22;9163;48.818;8.976;2022-09-09T14:57:06;21.00;99.90
15937;DHT22;9163;48.818;8.976;2022-09-09T14:59:33;20.90;99.90
15937;DHT22;9163;48.818;8.976;2022-09-09T15:02:01;20.90;99.90
15937;DHT22;9163;48.818;8.976;2022-09-09T15:04:30;20.90;99.90
15937;DHT22;9163;48.818;8.976;2022-09-09T15:06:59;20.60;99.90
15937;DHT22;9163;48.818;8.976;2022-09-09T15:09:28;20.80;99.90
15937;DHT22;9163;48.818;8.976;2022-09-09T15:11:57;20.80;99.90
15937;DHT22;9163;48.818;8.976;2022-09-09T15:14:28;20.80;99.90
15937;DHT22;9163;48.818;8.976;2022-09-09T15:16:56;20.60;99.90
15937;DHT22;9163;48.818;8.976;2022-09-09T15:19:23;20.50;99.90
15937;DHT22;9163;48.818;8.976;2022-09-09T15:21:51;20.50;99.90
15937;DHT22;9163;48.818;8.976;2022-09-09T15:24:18;20.60;99.90
15937;DHT22;9163;48.818;8.976;2022-09-09T15:26:46;20.90;99.90
15937;DHT22;9163;48.818;8.976;2022-09-09T15:29:15;20.90;99.90
15937;DHT22;9163;48.818;8.976;2022-09-09T15:31:42;20.90;99.90
15937;DHT22;9163;48.818;8.976;2022-09-09T15:34:10;21.00;99.90
15937;DHT22;9163;48.818;8.976;2022-09-09T15:36:40;21.00;99.90
15937;DHT22;9163;48.818;8.976;2022-09-09T15:39:09;20.80;99.90
15937;DHT22;9163;48.818;8.976;2022-09-09T15:41:38;20.60;99.90
15937;DHT22;9163;48.818;8.976;2022-09-09T15:44:07;20.20;99.90
15937;DHT22;9163;48.818;8.976;2022-09-09T15:46:41;20.00;99.90
15937;DHT22;9163;48.818;8.976;2022-09-09T15:49:11;20.00;99.90
15937;DHT22;9163;48.818;8.976;2022-09-09T15:51:39;20.00;99.90
15937;DHT22;9163;48.818;8.976;2022-09-09T15:54:09;20.00;99.90
15937;DHT22;9163;48.818;8.976;2022-09-09T15:56:38;19.90;99.90
15937;DHT22;9163;48.818;8.976;2022-09-09T15:59:05;19.90;99.90
15937;DHT22;9163;48.818;8.976;2022-09-09T16:01:33;19.80;99.90
15937;DHT22;9163;48.818;8.976;2022-09-09T16:04:02;19.80;99.90
15937;DHT22;9163;48.818;8.976;2022-09-09T16:06:29;19.70;99.90
15937;DHT22;9163;48.818;8.976;2022-09-09T16:08:58;19.70;99.90
15937;DHT22;9163;48.818;8.976;2022-09-09T16:11:29;19.50;99.90
15937;DHT22;9163;48.818;8.976;2022-09-09T16:13:59;19.50;99.90
15937;DHT22;9163;48.818;8.976;2022-09-09T16:16:28;19.20;99.90
15937;DHT22;9163;48.818;8.976;2022-09-09T16:18:59;18.40;99.90
15937;DHT22;9163;48.818;8.976;2022-09-09T16:21:30;18.20;99.90
15937;DHT22;9163;48.818;8.976;2022-09-09T16:23:59;17.70;99.90
15937;DHT22;9163;48.818;8.976;2022-09-09T16:26:29;17.30;99.90
15937;DHT22;9163;48.818;8.976;2022-09-09T16:28:56;17.20;99.90
15937;DHT22;9163;48.818;8.976;2022-09-09T16:31:26;17.20;99.90
15937;DHT22;9163;48.818;8.976;2022-09-09T16:33:54;17.00;99.90
15937;DHT22;9163;48.818;8.976;2022-09-09T16:36:23;17.10;99.90
15937;DHT22;9163;48.818;8.976;2022-09-09T16:38:54;17.10;99.90
15937;DHT22;9163;48.818;8.976;2022-09-09T16:41:23;17.00;99.90
15937;DHT22;9163;48.818;8.976;2022-09-09T16:43:52;17.00;99.90
15937;DHT22;9163;48.818;8.976;2022-09-09T16:46:20;17.00;99.90
15937;DHT22;9163;48.818;8.976;2022-09-09T16:48:48;16.90;99.90
15937;DHT22;9163;48.818;8.976;2022-09-09T16:51:17;16.80;99.90
15937;DHT22;9163;48.818;8.976;2022-09-09T16:53:45;16.70;99.90
15937;DHT22;9163;48.818;8.976;2022-09-09T16:56:16;16.80;99.90
15937;DHT22;9163;48.818;8.976;2022-09-09T16:58:49;16.60;99.90